sensor_id;sensor_type;location;lat;lon;timestamp;P1;durP1;ratioP1;P2;durP2;ratioP2
35306;SDS011;21420;52.196;21.416;2024-03-02T00:01:15;45.10;;;31.80;;
35306;SDS011;21420;52.196;21.416;2024-03-02T00:03:42;47.50;;;32.90;;
35306;SDS011;21420;52.196;21.416;2024-03-02T00:06:10;43.20;;;31.10;;
35306;SDS011;21420;52.196;21.416;2024-03-02T00:08:37;47.10;;;32.50;;
35306;SDS011;21420;52.196;21.416;2024-03-02T00:11:04;44.40;;;30.90;;
35306;SDS011;21420;52.196;21.416;2024-03-02T00:13:31;45.00;;;31.10;;
35306;SDS011;21420;52.196;21.416;2024-03-02T00:15:58;43.60;;;32.10;;
35306;SDS011;21420;52.196;21.416;2024-03-02T00:18:26;42.40;;;30.50;;
35306;SDS011;21420;52.196;21.416;2024-03-02T00:20:57;40.30;;;30.60;;
35306;SDS011;21420;52.196;21.416;2024-03-02T00:23:27;40.60;;;28.30;;
35306;SDS011;21420;52.196;21.416;2024-03-02T00:25:57;44.30;;;30.50;;
35306;SDS011;21420;52.196;21.416;2024-03-02T00:28:25;40.40;;;28.30;;
35306;SDS011;21420;52.196;21.416;2024-03-02T00:33:28;39.10;;;29.00;;
35306;SDS011;21420;52.196;21.416;2024-03-02T00:35:58;39.90;;;27.90;;
35306;SDS011;21420;52.196;21.416;2024-03-02T00:38:27;41.00;;;29.70;;
35306;SDS011;21420;52.196;21.416;2024-03-02T00:40:54;41.60;;;29.60;;
35306;SDS011;21420;52.196;21.416;2024-03-02T00:46:24;37.20;;;27.40;;
35306;SDS011;21420;52.196;21.416;2024-03-02T00:48:59;36.00;;;26.90;;
35306;SDS011;21420;52.196;21.416;2024-03-02T00:51:31;35.80;;;26.20;;
35306;SDS011;21420;52.196;21.416;2024-03-02T00:54:03;37.50;;;27.20;;
35306;SDS011;21420;52.196;21.416;2024-03-02T00:56:32;38.60;;;27.00;;
35306;SDS011;21420;52.196;21.416;2024-03-02T00:59:01;40.10;;;27.10;;
35306;SDS011;21420;52.196;21.416;2024-03-02T01:01:28;37.90;;;27.40;;
35306;SDS011;21420;52.196;21.416;2024-03-02T01:03:55;37.80;;;25.90;;
35306;SDS011;21420;52.196;21.416;2024-03-02T01:06:22;31.60;;;24.50;;
35306;SDS011;21420;52.196;21.416;2024-03-02T01:08:49;36.10;;;25.40;;
35306;SDS011;21420;52.196;21.416;2024-03-02T01:11:19;35.40;;;24.80;;
35306;SDS011;21420;52.196;21.416;2024-03-02T01:13:49;36.80;;;25.30;;
35306;SDS011;21420;52.196;21.416;2024-03-02T01:16:18;33.10;;;25.30;;
35306;SDS011;21420;52.196;21.416;2024-03-02T01:18:45;33.30;;;24.60;;
35306;SDS011;21420;52.196;21.416;2024-03-02T01:21:12;33.30;;;24.90;;
35306;SDS011;21420;52.196;21.416;2024-03-02T01:23:39;31.00;;;23.50;;
35306;SDS011;21420;52.196;21.416;2024-03-02T01:26:06;31.40;;;24.30;;
35306;SDS011;21420;52.196;21.416;2024-03-02T01:28:33;29.20;;;22.10;;
35306;SDS011;21420;52.196;21.416;2024-03-02T01:31:00;33.20;;;24.10;;
35306;SDS011;21420;52.196;21.416;2024-03-02T01:33:28;29.20;;;23.20;;
35306;SDS011;21420;52.196;21.416;2024-03-02T01:35:55;31.70;;;24.40;;
35306;SDS011;21420;52.196;21.416;2024-03-02T01:38:22;31.40;;;23.20;;
35306;SDS011;21420;52.196;21.416;2024-03-02T01:40:48;35.20;;;24.80;;
35306;SDS011;21420;52.196;21.416;2024-03-02T01:43:15;32.00;;;23.60;;
35306;SDS011;21420;52.196;21.416;2024-03-02T01:45:42;34.10;;;23.70;;
35306;SDS011;21420;52.196;21.416;2024-03-02T01:48:09;34.50;;;25.50;;
35306;SDS011;21420;52.196;21.416;2024-03-02T01:50:35;30.60;;;24.00;;
35306;SDS011;21420;52.196;21.416;2024-03-02T01:53:02;32.90;;;24.90;;
35306;SDS011;21420;52.196;21.416;2024-03-02T01:55:30;34.20;;;24.70;;
35306;SDS011;21420;52.196;21.416;2024-03-02T01:57:57;33.40;;;24.90;;
35306;SDS011;21420;52.196;21.416;2024-03-02T02:00:25;36.90;;;26.60;;
35306;SDS011;21420;52.196;21.416;2024-03-02T02:02:54;32.20;;;24.50;;
35306;SDS011;21420;52.196;21.416;2024-03-02T02:05:21;32.40;;;23.70;;
35306;SDS011;21420;52.196;21.416;2024-03-02T02:07:49;31.00;;;24.70;;
35306;SDS011;21420;52.196;21.416;2024-03-02T02:10:16;32.50;;;23.20;;
35306;SDS011;21420;52.196;21.416;2024-03-02T02:12:43;31.80;;;24.10;;
35306;SDS011;21420;52.196;21.416;2024-03-02T02:17:50;32.60;;;24.20;;
35306;SDS011;21420;52.196;21.416;2024-03-02T02:20:18;35.30;;;26.30;;
35306;SDS011;21420;52.196;21.416;2024-03-02T02:23:20;35.80;;;26.10;;
35306;SDS011;21420;52.196;21.416;2024-03-02T02:25:39;33.80;;;25.90;;
35306;SDS011;21420;52.196;21.416;2024-03-02T02:28:06;36.00;;;27.20;;
35306;SDS011;21420;52.196;21.416;2024-03-02T02:30:33;35.50;;;28.20;;
35306;SDS011;21420;52.196;21.416;2024-03-02T02:33:00;36.90;;;27.90;;
35306;SDS011;21420;52.196;21.416;2024-03-02T02:35:27;40.40;;;28.00;;
35306;SDS011;21420;52.196;21.416;2024-03-02T02:37:55;34.10;;;26.00;;
35306;SDS011;21420;52.196;21.416;2024-03-02T02:40:23;36.60;;;26.20;;
35306;SDS011;21420;52.196;21.416;2024-03-02T02:42:50;33.30;;;26.30;;
35306;SDS011;21420;52.196;21.416;2024-03-02T02:45:19;35.70;;;27.80;;
35306;SDS011;21420;52.196;21.416;2024-03-02T02:47:46;37.40;;;28.60;;
35306;SDS011;21420;52.196;21.416;2024-03-02T02:50:13;38.20;;;28.00;;
35306;SDS011;21420;52.196;21.416;2024-03-02T02:52:40;38.10;;;28.10;;
35306;SDS011;21420;52.196;21.416;2024-03-02T02:55:09;37.70;;;28.40;;
35306;SDS011;21420;52.196;21.416;2024-03-02T02:57:38;40.70;;;29.50;;
35306;SDS011;21420;52.196;21.416;2024-03-02T03:00:10;39.20;;;28.10;;
35306;SDS011;21420;52.196;21.416;2024-03-02T03:02:47;36.80;;;27.80;;
35306;SDS011;21420;52.196;21.416;2024-03-02T03:05:17;37.90;;;28.40;;
35306;SDS011;21420;52.196;21.416;2024-03-02T03:07:44;37.40;;;27.90;;
35306;SDS011;21420;52.196;21.416;2024-03-02T03:10:12;39.20;;;28.20;;
35306;SDS011;21420;52.196;21.416;2024-03-02T03:12:41;35.80;;;26.60;;
35306;SDS011;21420;52.196;21.416;2024-03-02T03:15:10;40.00;;;28.70;;
35306;SDS011;21420;52.196;21.416;2024-03-02T03:18:06;37.70;;;27.80;;
35306;SDS011;21420;52.196;21.416;2024-03-02T03:20:34;37.20;;;27.20;;
35306;SDS011;21420;52.196;21.416;2024-03-02T03:23:00;37.90;;;28.30;;
35306;SDS011;21420;52.196;21.416;2024-03-02T03:25:27;36.80;;;27.20;;
35306;SDS011;21420;52.196;21.416;2024-03-02T03:27:54;37.20;;;26.60;;
35306;SDS011;21420;52.196;21.416;2024-03-02T03:30:21;36.70;;;26.90;;
35306;SDS011;21420;52.196;21.416;2024-03-02T03:32:47;39.60;;;27.60;;
35306;SDS011;21420;52.196;21.416;2024-03-02T03:35:14;39.20;;;28.00;;
35306;SDS011;21420;52.196;21.416;2024-03-02T03:37:42;35.20;;;26.60;;
35306;SDS011;21420;52.196;21.416;2024-03-02T03:40:09;36.20;;;26.20;;
35306;SDS011;21420;52.196;21.416;2024-03-02T03:42:40;38.30;;;27.70;;
35306;SDS011;21420;52.196;21.416;2024-03-02T03:45:07;34.70;;;26.20;;
35306;SDS011;21420;52.196;21.416;2024-03-02T03:47:34;38.00;;;26.70;;
35306;SDS011;21420;52.196;21.416;2024-03-02T03:50:01;34.90;;;27.80;;
35306;SDS011;21420;52.196;21.416;2024-03-02T03:52:33;35.60;;;27.40;;
35306;SDS011;21420;52.196;21.416;2024-03-02T03:55:00;35.30;;;26.00;;
35306;SDS011;21420;52.196;21.416;2024-03-02T03:57:27;40.40;;;27.10;;
35306;SDS011;21420;52.196;21.416;2024-03-02T03:59:53;38.30;;;27.10;;
35306;SDS011;21420;52.196;21.416;2024-03-02T04:02:20;36.80;;;26.90;;
35306;SDS011;21420;52.196;21.416;2024-03-02T04:04:47;35.40;;;26.00;;
35306;SDS011;21420;52.196;21.416;2024-03-02T04:07:13;34.90;;;25.30;;
35306;SDS011;21420;52.196;21.416;2024-03-02T04:09:40;36.70;;;26.00;;
35306;SDS011;21420;52.196;21.416;2024-03-02T04:12:07;39.00;;;25.70;;
35306;SDS011;21420;52.196;21.416;2024-03-02T04:14:34;37.60;;;27.10;;
35306;SDS011;21420;52.196;21.416;2024-03-02T04:17:00;41.70;;;28.60;;
35306;SDS011;21420;52.196;21.416;2024-03-02T04:19:27;36.50;;;27.60;;
35306;SDS011;21420;52.196;21.416;2024-03-02T04:21:54;37.80;;;26.40;;
35306;SDS011;21420;52.196;21.416;2024-03-02T04:24:21;36.20;;;26.50;;
35306;SDS011;21420;52.196;21.416;2024-03-02T04:26:47;42.40;;;28.00;;
35306;SDS011;21420;52.196;21.416;2024-03-02T04:29:14;38.60;;;26.60;;
35306;SDS011;21420;52.196;21.416;2024-03-02T04:31:40;37.20;;;26.40;;
35306;SDS011;21420;52.196;21.416;2024-03-02T04:34:07;40.70;;;27.50;;
35306;SDS011;21420;52.196;21.416;2024-03-02T04:36:34;37.10;;;26.00;;
35306;SDS011;21420;52.196;21.416;2024-03-02T04:39:01;39.60;;;25.90;;
35306;SDS011;21420;52.196;21.416;2024-03-02T04:41:27;40.20;;;27.30;;
35306;SDS011;21420;52.196;21.416;2024-03-02T04:43:54;41.60;;;27.00;;
35306;SDS011;21420;52.196;21.416;2024-03-02T04:46:21;36.60;;;26.20;;
35306;SDS011;21420;52.196;21.416;2024-03-02T04:48:47;41.50;;;28.30;;
35306;SDS011;21420;52.196;21.416;2024-03-02T04:51:21;39.60;;;27.10;;
35306;SDS011;21420;52.196;21.416;2024-03-02T04:53:48;37.40;;;26.60;;
35306;SDS011;21420;52.196;21.416;2024-03-02T04:56:15;38.70;;;25.90;;
35306;SDS011;21420;52.196;21.416;2024-03-02T04:59:06;40.20;;;27.40;;
35306;SDS011;21420;52.196;21.416;2024-03-02T05:01:33;39.70;;;27.30;;
35306;SDS011;21420;52.196;21.416;2024-03-02T05:04:00;36.40;;;24.90;;
35306;SDS011;21420;52.196;21.416;2024-03-02T05:06:27;39.10;;;26.70;;
35306;SDS011;21420;52.196;21.416;2024-03-02T05:08:53;33.80;;;24.70;;
35306;SDS011;21420;52.196;21.416;2024-03-02T05:11:20;35.10;;;24.10;;
35306;SDS011;21420;52.196;21.416;2024-03-02T05:14:05;35.30;;;26.10;;
35306;SDS011;21420;52.196;21.416;2024-03-02T05:16:33;34.00;;;24.10;;
35306;SDS011;21420;52.196;21.416;2024-03-02T05:19:01;34.90;;;25.10;;
35306;SDS011;21420;52.196;21.416;2024-03-02T05:21:29;39.70;;;26.70;;
35306;SDS011;21420;52.196;21.416;2024-03-02T05:23:55;34.30;;;25.20;;
35306;SDS011;21420;52.196;21.416;2024-03-02T05:26:23;35.10;;;24.90;;
35306;SDS011;21420;52.196;21.416;2024-03-02T05:28:49;35.20;;;24.90;;
35306;SDS011;21420;52.196;21.416;2024-03-02T05:31:16;41.50;;;25.10;;
35306;SDS011;21420;52.196;21.416;2024-03-02T05:33:43;34.30;;;24.60;;
35306;SDS011;21420;52.196;21.416;2024-03-02T05:36:10;39.10;;;25.30;;
35306;SDS011;21420;52.196;21.416;2024-03-02T05:38:37;37.60;;;25.00;;
35306;SDS011;21420;52.196;21.416;2024-03-02T05:41:04;34.50;;;22.80;;
35306;SDS011;21420;52.196;21.416;2024-03-02T05:43:31;35.50;;;25.00;;
35306;SDS011;21420;52.196;21.416;2024-03-02T05:45:58;35.50;;;24.60;;
35306;SDS011;21420;52.196;21.416;2024-03-02T05:48:24;36.70;;;24.00;;
35306;SDS011;21420;52.196;21.416;2024-03-02T05:50:51;36.40;;;24.90;;
35306;SDS011;21420;52.196;21.416;2024-03-02T05:53:18;37.60;;;25.70;;
35306;SDS011;21420;52.196;21.416;2024-03-02T05:55:44;33.60;;;23.80;;
35306;SDS011;21420;52.196;21.416;2024-03-02T05:58:11;37.70;;;25.90;;
35306;SDS011;21420;52.196;21.416;2024-03-02T06:00:58;36.10;;;24.20;;
35306;SDS011;21420;52.196;21.416;2024-03-02T06:03:26;32.10;;;23.40;;
35306;SDS011;21420;52.196;21.416;2024-03-02T06:05:52;32.90;;;22.90;;
35306;SDS011;21420;52.196;21.416;2024-03-02T06:08:19;31.80;;;22.40;;
35306;SDS011;21420;52.196;21.416;2024-03-02T06:10:46;39.40;;;26.70;;
35306;SDS011;21420;52.196;21.416;2024-03-02T06:13:13;39.60;;;27.80;;
35306;SDS011;21420;52.196;21.416;2024-03-02T06:15:40;37.00;;;25.80;;
35306;SDS011;21420;52.196;21.416;2024-03-02T06:18:06;37.70;;;25.00;;
35306;SDS011;21420;52.196;21.416;2024-03-02T06:20:34;38.60;;;26.40;;
35306;SDS011;21420;52.196;21.416;2024-03-02T06:23:03;34.70;;;24.00;;
35306;SDS011;21420;52.196;21.416;2024-03-02T06:25:30;35.80;;;23.40;;
35306;SDS011;21420;52.196;21.416;2024-03-02T06:27:57;37.50;;;24.90;;
35306;SDS011;21420;52.196;21.416;2024-03-02T06:30:24;33.00;;;23.20;;
35306;SDS011;21420;52.196;21.416;2024-03-02T06:32:51;38.90;;;25.70;;
35306;SDS011;21420;52.196;21.416;2024-03-02T06:35:17;36.50;;;23.90;;
35306;SDS011;21420;52.196;21.416;2024-03-02T06:37:44;34.70;;;23.50;;
35306;SDS011;21420;52.196;21.416;2024-03-02T06:40:11;37.40;;;23.00;;
35306;SDS011;21420;52.196;21.416;2024-03-02T06:42:37;36.60;;;24.40;;
35306;SDS011;21420;52.196;21.416;2024-03-02T06:45:04;38.80;;;24.60;;
35306;SDS011;21420;52.196;21.416;2024-03-02T06:47:31;36.40;;;23.20;;
35306;SDS011;21420;52.196;21.416;2024-03-02T06:49:58;34.70;;;23.80;;
35306;SDS011;21420;52.196;21.416;2024-03-02T06:52:25;40.80;;;24.10;;
35306;SDS011;21420;52.196;21.416;2024-03-02T06:54:52;35.90;;;24.80;;
35306;SDS011;21420;52.196;21.416;2024-03-02T06:57:18;38.80;;;23.50;;
35306;SDS011;21420;52.196;21.416;2024-03-02T06:59:47;36.40;;;24.80;;
35306;SDS011;21420;52.196;21.416;2024-03-02T07:02:16;35.70;;;23.60;;
35306;SDS011;21420;52.196;21.416;2024-03-02T07:04:43;37.60;;;24.90;;
35306;SDS011;21420;52.196;21.416;2024-03-02T07:07:11;35.40;;;24.30;;
35306;SDS011;21420;52.196;21.416;2024-03-02T07:09:38;36.80;;;23.90;;
35306;SDS011;21420;52.196;21.416;2024-03-02T07:12:05;38.90;;;24.70;;
35306;SDS011;21420;52.196;21.416;2024-03-02T07:14:32;36.30;;;24.30;;
35306;SDS011;21420;52.196;21.416;2024-03-02T07:17:17;34.80;;;23.00;;
35306;SDS011;21420;52.196;21.416;2024-03-02T07:19:44;36.70;;;24.90;;
35306;SDS011;21420;52.196;21.416;2024-03-02T07:22:10;34.40;;;23.00;;
35306;SDS011;21420;52.196;21.416;2024-03-02T07:24:41;37.50;;;24.00;;
35306;SDS011;21420;52.196;21.416;2024-03-02T07:27:09;37.40;;;23.60;;
35306;SDS011;21420;52.196;21.416;2024-03-02T07:29:36;38.60;;;23.40;;
35306;SDS011;21420;52.196;21.416;2024-03-02T07:32:03;35.20;;;23.60;;
35306;SDS011;21420;52.196;21.416;2024-03-02T07:34:30;39.80;;;24.00;;
35306;SDS011;21420;52.196;21.416;2024-03-02T07:36:57;34.30;;;23.80;;
35306;SDS011;21420;52.196;21.416;2024-03-02T07:39:24;35.70;;;24.30;;
35306;SDS011;21420;52.196;21.416;2024-03-02T07:41:52;38.20;;;24.20;;
35306;SDS011;21420;52.196;21.416;2024-03-02T07:44:18;39.00;;;24.90;;
35306;SDS011;21420;52.196;21.416;2024-03-02T07:46:46;37.20;;;24.70;;
35306;SDS011;21420;52.196;21.416;2024-03-02T07:49:13;35.00;;;24.50;;
35306;SDS011;21420;52.196;21.416;2024-03-02T07:51:42;38.70;;;25.30;;
35306;SDS011;21420;52.196;21.416;2024-03-02T07:54:09;36.80;;;24.20;;
35306;SDS011;21420;52.196;21.416;2024-03-02T07:56:36;40.20;;;25.30;;
35306;SDS011;21420;52.196;21.416;2024-03-02T07:59:03;40.30;;;25.20;;
35306;SDS011;21420;52.196;21.416;2024-03-02T08:01:31;43.40;;;26.90;;
35306;SDS011;21420;52.196;21.416;2024-03-02T08:03:59;37.60;;;24.10;;
35306;SDS011;21420;52.196;21.416;2024-03-02T08:06:27;38.60;;;25.50;;
35306;SDS011;21420;52.196;21.416;2024-03-02T08:08:55;40.20;;;25.80;;
35306;SDS011;21420;52.196;21.416;2024-03-02T08:11:22;40.20;;;25.60;;
35306;SDS011;21420;52.196;21.416;2024-03-02T08:13:49;39.40;;;25.20;;
35306;SDS011;21420;52.196;21.416;2024-03-02T08:16:18;39.10;;;26.20;;
35306;SDS011;21420;52.196;21.416;2024-03-02T08:18:46;40.20;;;26.80;;
35306;SDS011;21420;52.196;21.416;2024-03-02T08:21:14;42.90;;;26.00;;
35306;SDS011;21420;52.196;21.416;2024-03-02T08:23:42;39.50;;;25.00;;
35306;SDS011;21420;52.196;21.416;2024-03-02T08:26:10;45.10;;;27.60;;
35306;SDS011;21420;52.196;21.416;2024-03-02T08:28:38;39.20;;;26.70;;
35306;SDS011;21420;52.196;21.416;2024-03-02T08:31:07;41.30;;;26.80;;
35306;SDS011;21420;52.196;21.416;2024-03-02T08:33:34;37.70;;;26.30;;
35306;SDS011;21420;52.196;21.416;2024-03-02T08:36:04;38.20;;;25.10;;
35306;SDS011;21420;52.196;21.416;2024-03-02T08:38:31;39.30;;;26.50;;
35306;SDS011;21420;52.196;21.416;2024-03-02T08:40:59;37.70;;;25.10;;
35306;SDS011;21420;52.196;21.416;2024-03-02T08:43:26;42.80;;;26.30;;
35306;SDS011;21420;52.196;21.416;2024-03-02T08:45:52;45.80;;;29.10;;
35306;SDS011;21420;52.196;21.416;2024-03-02T08:48:19;43.70;;;29.70;;
35306;SDS011;21420;52.196;21.416;2024-03-02T08:50:47;46.00;;;28.90;;
35306;SDS011;21420;52.196;21.416;2024-03-02T08:53:14;40.90;;;27.40;;
35306;SDS011;21420;52.196;21.416;2024-03-02T08:55:45;40.80;;;27.50;;
35306;SDS011;21420;52.196;21.416;2024-03-02T08:58:12;45.90;;;29.10;;
35306;SDS011;21420;52.196;21.416;2024-03-02T09:00:40;41.50;;;28.60;;
35306;SDS011;21420;52.196;21.416;2024-03-02T09:03:07;44.60;;;28.60;;
35306;SDS011;21420;52.196;21.416;2024-03-02T09:05:34;46.30;;;28.80;;
35306;SDS011;21420;52.196;21.416;2024-03-02T09:08:01;42.20;;;27.30;;
35306;SDS011;21420;52.196;21.416;2024-03-02T09:10:30;45.20;;;29.40;;
35306;SDS011;21420;52.196;21.416;2024-03-02T09:12:56;41.50;;;27.60;;
35306;SDS011;21420;52.196;21.416;2024-03-02T09:15:23;43.30;;;28.00;;
35306;SDS011;21420;52.196;21.416;2024-03-02T09:17:50;41.30;;;26.90;;
35306;SDS011;21420;52.196;21.416;2024-03-02T09:20:17;35.70;;;26.20;;
35306;SDS011;21420;52.196;21.416;2024-03-02T09:22:43;39.70;;;26.50;;
35306;SDS011;21420;52.196;21.416;2024-03-02T09:25:10;38.90;;;26.30;;
35306;SDS011;21420;52.196;21.416;2024-03-02T09:27:37;39.40;;;27.30;;
35306;SDS011;21420;52.196;21.416;2024-03-02T09:30:06;42.20;;;28.20;;
35306;SDS011;21420;52.196;21.416;2024-03-02T09:32:34;41.90;;;26.90;;
35306;SDS011;21420;52.196;21.416;2024-03-02T09:35:01;43.70;;;30.70;;
35306;SDS011;21420;52.196;21.416;2024-03-02T09:37:28;38.00;;;27.20;;
35306;SDS011;21420;52.196;21.416;2024-03-02T09:39:55;45.00;;;28.40;;
35306;SDS011;21420;52.196;21.416;2024-03-02T09:42:22;39.60;;;29.30;;
35306;SDS011;21420;52.196;21.416;2024-03-02T09:44:50;43.80;;;29.20;;
35306;SDS011;21420;52.196;21.416;2024-03-02T09:47:17;38.70;;;25.70;;
35306;SDS011;21420;52.196;21.416;2024-03-02T09:49:44;40.20;;;27.50;;
35306;SDS011;21420;52.196;21.416;2024-03-02T09:52:11;42.50;;;28.90;;
35306;SDS011;21420;52.196;21.416;2024-03-02T09:54:39;40.30;;;28.30;;
35306;SDS011;21420;52.196;21.416;2024-03-02T09:57:06;41.40;;;29.20;;
35306;SDS011;21420;52.196;21.416;2024-03-02T09:59:33;45.90;;;27.40;;
35306;SDS011;21420;52.196;21.416;2024-03-02T10:02:02;56.30;;;35.50;;
35306;SDS011;21420;52.196;21.416;2024-03-02T10:04:29;50.70;;;32.20;;
35306;SDS011;21420;52.196;21.416;2024-03-02T10:09:42;44.90;;;30.30;;
35306;SDS011;21420;52.196;21.416;2024-03-02T10:12:13;48.70;;;31.80;;
35306;SDS011;21420;52.196;21.416;2024-03-02T10:14:42;41.00;;;30.90;;
35306;SDS011;21420;52.196;21.416;2024-03-02T10:17:10;45.20;;;31.40;;
35306;SDS011;21420;52.196;21.416;2024-03-02T10:19:39;45.40;;;32.80;;
35306;SDS011;21420;52.196;21.416;2024-03-02T10:22:07;44.60;;;31.20;;
35306;SDS011;21420;52.196;21.416;2024-03-02T10:24:36;49.90;;;33.80;;
35306;SDS011;21420;52.196;21.416;2024-03-02T10:27:25;43.30;;;32.70;;
35306;SDS011;21420;52.196;21.416;2024-03-02T10:29:53;47.50;;;35.40;;
35306;SDS011;21420;52.196;21.416;2024-03-02T10:32:21;48.60;;;33.90;;
35306;SDS011;21420;52.196;21.416;2024-03-02T10:34:49;54.50;;;35.80;;
35306;SDS011;21420;52.196;21.416;2024-03-02T10:37:17;45.10;;;34.80;;
35306;SDS011;21420;52.196;21.416;2024-03-02T10:39:45;50.50;;;36.90;;
35306;SDS011;21420;52.196;21.416;2024-03-02T10:42:14;50.10;;;36.50;;
35306;SDS011;21420;52.196;21.416;2024-03-02T10:44:42;54.30;;;36.60;;
35306;SDS011;21420;52.196;21.416;2024-03-02T10:47:09;54.10;;;39.80;;
35306;SDS011;21420;52.196;21.416;2024-03-02T10:49:39;53.00;;;37.40;;
35306;SDS011;21420;52.196;21.416;2024-03-02T10:52:08;48.60;;;36.60;;
35306;SDS011;21420;52.196;21.416;2024-03-02T10:54:36;45.20;;;34.30;;
35306;SDS011;21420;52.196;21.416;2024-03-02T10:57:04;55.40;;;38.10;;
35306;SDS011;21420;52.196;21.416;2024-03-02T10:59:34;48.40;;;35.10;;
35306;SDS011;21420;52.196;21.416;2024-03-02T11:02:03;50.20;;;38.60;;
35306;SDS011;21420;52.196;21.416;2024-03-02T11:04:32;50.30;;;37.70;;
35306;SDS011;21420;52.196;21.416;2024-03-02T11:07:05;54.70;;;38.90;;
35306;SDS011;21420;52.196;21.416;2024-03-02T11:09:35;45.80;;;35.60;;
35306;SDS011;21420;52.196;21.416;2024-03-02T11:12:50;44.50;;;35.60;;
35306;SDS011;21420;52.196;21.416;2024-03-02T11:14:58;44.60;;;35.20;;
35306;SDS011;21420;52.196;21.416;2024-03-02T11:17:25;52.70;;;35.50;;
35306;SDS011;21420;52.196;21.416;2024-03-02T11:19:53;52.20;;;36.90;;
35306;SDS011;21420;52.196;21.416;2024-03-02T11:22:20;45.70;;;34.80;;
35306;SDS011;21420;52.196;21.416;2024-03-02T11:24:50;45.40;;;33.50;;
35306;SDS011;21420;52.196;21.416;2024-03-02T11:33:03;46.40;;;35.30;;
35306;SDS011;21420;52.196;21.416;2024-03-02T11:35:35;45.50;;;34.20;;
35306;SDS011;21420;52.196;21.416;2024-03-02T11:38:06;55.30;;;39.20;;
35306;SDS011;21420;52.196;21.416;2024-03-02T11:40:33;60.50;;;43.30;;
35306;SDS011;21420;52.196;21.416;2024-03-02T11:43:00;44.90;;;34.80;;
35306;SDS011;21420;52.196;21.416;2024-03-02T11:45:28;46.80;;;34.70;;
35306;SDS011;21420;52.196;21.416;2024-03-02T11:47:58;45.90;;;33.50;;
35306;SDS011;21420;52.196;21.416;2024-03-02T11:50:34;41.50;;;32.60;;
35306;SDS011;21420;52.196;21.416;2024-03-02T11:53:24;44.80;;;33.50;;
35306;SDS011;21420;52.196;21.416;2024-03-02T11:55:59;43.80;;;33.30;;
35306;SDS011;21420;52.196;21.416;2024-03-02T11:58:31;53.50;;;38.80;;
35306;SDS011;21420;52.196;21.416;2024-03-02T12:03:30;52.10;;;38.20;;
35306;SDS011;21420;52.196;21.416;2024-03-02T12:06:03;53.40;;;37.50;;
35306;SDS011;21420;52.196;21.416;2024-03-02T12:11:03;47.10;;;34.70;;
35306;SDS011;21420;52.196;21.416;2024-03-02T12:13:33;43.90;;;35.40;;
35306;SDS011;21420;52.196;21.416;2024-03-02T12:16:03;48.60;;;34.70;;
35306;SDS011;21420;52.196;21.416;2024-03-02T12:18:31;42.00;;;33.40;;
35306;SDS011;21420;52.196;21.416;2024-03-02T12:21:01;44.50;;;32.80;;
35306;SDS011;21420;52.196;21.416;2024-03-02T12:23:34;51.10;;;36.50;;
35306;SDS011;21420;52.196;21.416;2024-03-02T12:26:02;43.70;;;32.60;;
35306;SDS011;21420;52.196;21.416;2024-03-02T12:28:32;45.00;;;33.50;;
35306;SDS011;21420;52.196;21.416;2024-03-02T12:31:02;41.40;;;31.90;;
35306;SDS011;21420;52.196;21.416;2024-03-02T12:33:32;39.60;;;30.00;;
35306;SDS011;21420;52.196;21.416;2024-03-02T12:36:01;44.60;;;33.90;;
35306;SDS011;21420;52.196;21.416;2024-03-02T12:38:30;44.20;;;33.40;;
35306;SDS011;21420;52.196;21.416;2024-03-02T12:43:30;44.80;;;34.30;;
35306;SDS011;21420;52.196;21.416;2024-03-02T12:52:58;36.20;;;30.10;;
35306;SDS011;21420;52.196;21.416;2024-03-02T12:55:25;40.40;;;29.90;;
35306;SDS011;21420;52.196;21.416;2024-03-02T12:57:52;42.60;;;33.60;;
35306;SDS011;21420;52.196;21.416;2024-03-02T13:00:20;47.80;;;32.00;;
35306;SDS011;21420;52.196;21.416;2024-03-02T13:02:49;39.30;;;32.10;;
35306;SDS011;21420;52.196;21.416;2024-03-02T13:05:18;49.10;;;34.10;;
35306;SDS011;21420;52.196;21.416;2024-03-02T13:07:47;47.40;;;33.60;;
35306;SDS011;21420;52.196;21.416;2024-03-02T13:10:15;42.60;;;32.70;;
35306;SDS011;21420;52.196;21.416;2024-03-02T13:12:44;49.50;;;33.70;;
35306;SDS011;21420;52.196;21.416;2024-03-02T13:15:12;51.10;;;34.80;;
35306;SDS011;21420;52.196;21.416;2024-03-02T13:17:46;47.00;;;34.40;;
35306;SDS011;21420;52.196;21.416;2024-03-02T13:20:13;47.70;;;35.80;;
35306;SDS011;21420;52.196;21.416;2024-03-02T13:22:41;46.30;;;34.90;;
35306;SDS011;21420;52.196;21.416;2024-03-02T13:25:09;52.50;;;38.40;;
35306;SDS011;21420;52.196;21.416;2024-03-02T13:27:38;55.10;;;38.30;;
35306;SDS011;21420;52.196;21.416;2024-03-02T13:30:05;56.80;;;40.60;;
35306;SDS011;21420;52.196;21.416;2024-03-02T13:32:32;54.70;;;38.20;;
35306;SDS011;21420;52.196;21.416;2024-03-02T13:34:59;47.50;;;33.10;;
35306;SDS011;21420;52.196;21.416;2024-03-02T13:37:27;44.00;;;33.70;;
35306;SDS011;21420;52.196;21.416;2024-03-02T13:39:54;47.20;;;33.30;;
35306;SDS011;21420;52.196;21.416;2024-03-02T13:42:20;42.90;;;31.60;;
35306;SDS011;21420;52.196;21.416;2024-03-02T13:44:48;42.50;;;32.10;;
35306;SDS011;21420;52.196;21.416;2024-03-02T13:47:17;45.00;;;32.10;;
35306;SDS011;21420;52.196;21.416;2024-03-02T13:49:44;46.20;;;33.40;;
35306;SDS011;21420;52.196;21.416;2024-03-02T13:52:14;46.70;;;33.50;;
35306;SDS011;21420;52.196;21.416;2024-03-02T13:54:41;44.40;;;32.10;;
35306;SDS011;21420;52.196;21.416;2024-03-02T13:57:10;47.00;;;33.50;;
35306;SDS011;21420;52.196;21.416;2024-03-02T13:59:38;45.40;;;31.00;;
35306;SDS011;21420;52.196;21.416;2024-03-02T14:02:05;45.20;;;32.70;;
35306;SDS011;21420;52.196;21.416;2024-03-02T14:04:36;44.60;;;33.60;;
35306;SDS011;21420;52.196;21.416;2024-03-02T14:07:04;53.50;;;34.80;;
35306;SDS011;21420;52.196;21.416;2024-03-02T14:12:01;51.70;;;37.40;;
35306;SDS011;21420;52.196;21.416;2024-03-02T14:14:28;45.40;;;33.40;;
35306;SDS011;21420;52.196;21.416;2024-03-02T14:16:55;44.00;;;31.80;;
35306;SDS011;21420;52.196;21.416;2024-03-02T14:19:22;48.30;;;34.80;;
35306;SDS011;21420;52.196;21.416;2024-03-02T14:21:49;44.40;;;34.30;;
35306;SDS011;21420;52.196;21.416;2024-03-02T14:24:16;49.70;;;35.20;;
35306;SDS011;21420;52.196;21.416;2024-03-02T14:26:43;55.80;;;35.10;;
35306;SDS011;21420;52.196;21.416;2024-03-02T14:29:12;45.40;;;33.80;;
35306;SDS011;21420;52.196;21.416;2024-03-02T14:31:38;46.80;;;33.90;;
35306;SDS011;21420;52.196;21.416;2024-03-02T14:34:06;52.20;;;34.10;;
35306;SDS011;21420;52.196;21.416;2024-03-02T14:36:33;44.10;;;33.00;;
35306;SDS011;21420;52.196;21.416;2024-03-02T14:39:00;46.50;;;35.40;;
35306;SDS011;21420;52.196;21.416;2024-03-02T14:41:27;44.50;;;32.60;;
35306;SDS011;21420;52.196;21.416;2024-03-02T14:43:54;43.80;;;33.30;;
35306;SDS011;21420;52.196;21.416;2024-03-02T14:46:21;43.00;;;33.60;;
35306;SDS011;21420;52.196;21.416;2024-03-02T14:48:48;47.00;;;33.50;;